Time;durP1;ratioP1;P1;durP2;ratioP2;P2;SDS_P1;SDS_P2;PMS_P1;PMS_P2;Temp;Humidity;BMP_temperature;BMP_pressure;BME280_temperature;BME280_humidity;BME280_pressure;Samples;Min_cycle;Max_cycle;Signal;HPM_P1;HPM_P2
2022/03/31 00:02:12;;;;;;;9.37;6.53;;;5.10;99.90;;;;;;5073624;28;20168;-67
2022/03/31 00:04:38;;;;;;;10.33;6.30;;;5.00;99.90;;;;;;5073119;28;20154;-67
2022/03/31 00:07:07;;;;;;;10.30;6.77;;;5.00;99.90;;;;;;5073232;28;20171;-67
2022/03/31 00:09:32;;;;;;;9.40;5.73;;;5.10;99.90;;;;;;5072876;28;20182;-66
2022/03/31 00:11:59;;;;;;;10.30;6.37;;;5.10;99.90;;;;;;5072988;28;20163;-67
2022/03/31 00:14:26;;;;;;;9.60;6.43;;;5.10;99.90;;;;;;5072860;28;20206;-66
2022/03/31 00:16:53;;;;;;;9.67;6.13;;;5.10;99.90;;;;;;5072753;28;20160;-67
2022/03/31 00:19:19;;;;;;;11.33;6.90;;;5.20;99.90;;;;;;5072603;28;20563;-67
2022/03/31 00:21:44;;;;;;;11.10;6.20;;;5.20;99.90;;;;;;5072580;28;20223;-66
2022/03/31 00:24:10;;;;;;;9.17;6.60;;;5.10;99.90;;;;;;5076573;28;20172;-66
2022/03/31 00:26:35;;;;;;;9.83;6.80;;;5.10;99.90;;;;;;5075921;28;20160;-67
2022/03/31 00:29:01;;;;;;;9.73;6.10;;;5.10;99.90;;;;;;5058197;28;20276;-65
2022/03/31 00:31:27;;;;;;;12.27;7.10;;;5.10;99.90;;;;;;5076074;28;20185;-67
2022/03/31 00:33:53;;;;;;;11.43;5.93;;;5.10;99.90;;;;;;5075257;28;20203;-66
2022/03/31 00:36:18;;;;;;;8.67;6.23;;;5.00;99.90;;;;;;5078397;28;20186;-67
2022/03/31 00:39:28;;;;;;;8.77;6.73;;;4.90;99.90;;;;;;5074779;28;20174;-66
2022/03/31 00:41:35;;;;;;;8.33;6.47;;;4.90;99.90;;;;;;5073818;28;20219;-66
2022/03/31 00:44:01;;;;;;;7.70;6.50;;;4.90;99.90;;;;;;5073259;28;20241;-66
2022/03/31 00:46:27;;;;;;;11.13;7.00;;;5.10;99.90;;;;;;5073586;28;20551;-66
2022/03/31 00:48:52;;;;;;;8.77;6.60;;;5.10;99.90;;;;;;5056100;28;20205;-65
2022/03/31 00:51:18;;;;;;;10.17;6.83;;;5.00;99.90;;;;;;5073291;28;20174;-67
2022/03/31 00:53:43;;;;;;;10.57;6.80;;;4.90;99.90;;;;;;5055865;28;20214;-66
2022/03/31 00:56:10;;;;;;;10.77;6.63;;;4.90;99.90;;;;;;5075866;28;20316;-66
2022/03/31 00:58:36;;;;;;;12.10;7.40;;;4.90;99.90;;;;;;5076402;28;20163;-66
2022/03/31 01:01:02;;;;;;;10.23;6.70;;;5.10;99.90;;;;;;5061664;28;20178;-66
2022/03/31 01:03:28;;;;;;;10.53;7.03;;;5.00;99.90;;;;;;5083577;28;20580;-66
2022/03/31 01:05:54;;;;;;;10.53;6.83;;;5.00;99.90;;;;;;5077563;28;20160;-66
2022/03/31 01:08:21;;;;;;;10.13;7.17;;;4.90;99.90;;;;;;5077594;28;20199;-66
2022/03/31 01:10:49;;;;;;;9.43;7.00;;;4.90;99.90;;;;;;5076814;28;20162;-67
2022/03/31 01:13:15;;;;;;;10.17;6.33;;;5.00;99.90;;;;;;5076192;28;20216;-66
2022/03/31 01:15:41;;;;;;;8.47;6.63;;;4.80;99.90;;;;;;5076110;28;20585;-65
2022/03/31 01:18:07;;;;;;;9.67;6.77;;;4.90;99.90;;;;;;5076216;28;20627;-66
2022/03/31 01:20:33;;;;;;;10.63;7.07;;;4.80;99.90;;;;;;5078788;28;20159;-67
2022/03/31 01:23:00;;;;;;;13.60;7.17;;;4.70;99.90;;;;;;5080935;28;20589;-66
2022/03/31 01:25:26;;;;;;;11.47;7.17;;;4.80;99.90;;;;;;5081176;28;20181;-68
2022/03/31 01:27:52;;;;;;;11.23;7.50;;;4.80;99.90;;;;;;5095870;28;20180;-67
2022/03/31 01:30:23;;;;;;;11.87;6.87;;;4.80;99.90;;;;;;5096230;28;20159;-66
2022/03/31 01:32:50;;;;;;;10.43;7.57;;;4.90;99.90;;;;;;5095623;28;20202;-65
2022/03/31 01:35:17;;;;;;;12.97;7.90;;;4.90;99.90;;;;;;5096903;28;20598;-66
2022/03/31 01:37:43;;;;;;;10.37;7.80;;;4.90;99.90;;;;;;5097221;28;20226;-69
2022/03/31 01:40:10;;;;;;;11.73;7.80;;;4.90;99.90;;;;;;5096659;28;20600;-66
2022/03/31 01:42:36;;;;;;;9.93;7.30;;;4.90;99.90;;;;;;5097078;28;20157;-67
2022/03/31 01:45:04;;;;;;;14.90;7.30;;;4.80;99.90;;;;;;5096530;28;20157;-65
2022/03/31 01:47:30;;;;;;;11.30;7.80;;;4.70;99.90;;;;;;5111697;28;20273;-65
2022/03/31 01:49:55;;;;;;;10.97;7.90;;;4.70;99.90;;;;;;5095852;28;20245;-67
2022/03/31 01:52:27;;;;;;;12.10;8.87;;;4.90;99.90;;;;;;5095272;28;20161;-67
2022/03/31 01:54:52;;;;;;;14.13;8.17;;;4.60;99.90;;;;;;5076999;28;20230;-67
2022/03/31 01:57:18;;;;;;;13.13;8.33;;;4.70;99.90;;;;;;5095109;28;20161;-66
2022/03/31 01:59:44;;;;;;;17.10;8.00;;;4.80;99.90;;;;;;5094912;28;20215;-66
2022/03/31 02:02:12;;;;;;;11.17;9.03;;;4.70;99.90;;;;;;5095446;28;20169;-66
2022/03/31 02:04:39;;;;;;;14.30;8.53;;;4.70;99.90;;;;;;5095098;28;20199;-66
2022/03/31 02:07:05;;;;;;;13.30;9.50;;;4.70;99.90;;;;;;5094865;28;20166;-67
2022/03/31 02:09:30;;;;;;;12.90;8.53;;;4.70;99.90;;;;;;5077369;28;20259;-66
2022/03/31 02:11:57;;;;;;;13.07;9.03;;;4.70;99.90;;;;;;5095326;28;20555;-66
2022/03/31 02:14:24;;;;;;;13.13;9.27;;;4.70;99.90;;;;;;5095378;28;20193;-67
2022/03/31 02:16:49;;;;;;;13.37;9.03;;;4.60;99.90;;;;;;5095436;28;20201;-66
2022/03/31 02:19:16;;;;;;;18.07;9.70;;;4.70;99.90;;;;;;5095393;28;20159;-67
2022/03/31 02:21:42;;;;;;;22.30;10.83;;;4.70;99.90;;;;;;5095216;28;20180;-67
2022/03/31 02:24:08;;;;;;;14.07;10.03;;;4.70;99.90;;;;;;5096131;28;20165;-65
2022/03/31 02:26:35;;;;;;;15.10;10.33;;;4.60;99.90;;;;;;5101160;28;20181;-66
2022/03/31 02:29:03;;;;;;;19.40;10.50;;;4.60;99.90;;;;;;5077084;28;20178;-66
2022/03/31 02:31:29;;;;;;;14.77;9.83;;;4.70;99.90;;;;;;5076827;28;20265;-66
2022/03/31 02:33:55;;;;;;;15.33;9.60;;;4.80;99.90;;;;;;5095280;28;20199;-66
2022/03/31 02:36:22;;;;;;;17.27;10.67;;;4.70;99.90;;;;;;5095533;28;20177;-67
2022/03/31 02:38:47;;;;;;;16.07;10.43;;;4.80;99.90;;;;;;5090253;28;20184;-65
2022/03/31 02:41:13;;;;;;;15.53;10.87;;;4.60;99.90;;;;;;5094863;28;20200;-66
2022/03/31 02:43:39;;;;;;;17.17;11.70;;;4.60;99.90;;;;;;5095136;28;20166;-66
2022/03/31 02:46:04;;;;;;;19.93;11.10;;;4.60;99.90;;;;;;5097745;28;20213;-66
2022/03/31 02:48:30;;;;;;;15.47;10.80;;;4.60;99.90;;;;;;5095148;28;20593;-66
2022/03/31 02:50:55;;;;;;;18.43;11.07;;;4.60;99.90;;;;;;5096240;28;20280;-65
2022/03/31 02:56:06;;;;;;;16.37;11.13;;;4.50;99.90;;;;;;5099286;28;20295;-65
2022/03/31 02:58:31;;;;;;;15.70;11.13;;;4.40;99.90;;;;;;5100057;28;20578;-65
2022/03/31 03:00:57;;;;;;;16.53;12.10;;;4.40;99.90;;;;;;5099351;28;20160;-66
2022/03/31 03:03:23;;;;;;;17.33;11.20;;;4.50;99.90;;;;;;5097486;28;20167;-70
2022/03/31 03:05:48;;;;;;;20.10;12.23;;;4.40;99.90;;;;;;5094165;28;20167;-65
2022/03/31 03:08:15;;;;;;;22.30;12.73;;;4.40;99.90;;;;;;5094434;28;20212;-65
2022/03/31 03:10:42;;;;;;;18.67;11.60;;;4.40;99.90;;;;;;5093865;28;20163;-66
2022/03/31 03:13:08;;;;;;;19.20;12.50;;;4.20;99.90;;;;;;5104737;28;20213;-65
2022/03/31 03:15:34;;;;;;;20.80;12.57;;;4.30;99.90;;;;;;5098443;28;20173;-66
2022/03/31 03:17:59;;;;;;;24.97;13.63;;;4.30;99.90;;;;;;5115556;28;20169;-66
2022/03/31 03:20:25;;;;;;;20.77;12.67;;;4.30;99.90;;;;;;5096035;28;20265;-66
2022/03/31 03:22:52;;;;;;;19.03;12.50;;;4.30;99.90;;;;;;5114614;28;20210;-66
2022/03/31 03:25:20;;;;;;;22.77;13.37;;;4.30;99.90;;;;;;5114338;28;20269;-65
2022/03/31 03:27:48;;;;;;;20.50;12.27;;;4.20;99.90;;;;;;5113951;28;20636;-66
2022/03/31 03:30:14;;;;;;;20.90;12.83;;;4.20;99.90;;;;;;5114143;28;20163;-65
2022/03/31 03:32:41;;;;;;;19.00;12.63;;;4.20;99.90;;;;;;5096420;28;20290;-66
2022/03/31 03:35:09;;;;;;;23.57;12.50;;;4.30;99.90;;;;;;5114273;28;20190;-67
2022/03/31 03:37:39;;;;;;;19.00;13.00;;;4.30;99.90;;;;;;5114093;28;20185;-65
2022/03/31 03:40:09;;;;;;;22.67;13.00;;;4.10;99.90;;;;;;5117292;28;20171;-66
2022/03/31 03:42:35;;;;;;;18.97;12.63;;;4.10;99.90;;;;;;5118498;28;20508;-65
2022/03/31 03:45:02;;;;;;;22.07;13.20;;;4.10;99.90;;;;;;5114169;28;20163;-65
2022/03/31 03:47:28;;;;;;;19.23;12.07;;;4.00;99.90;;;;;;5114794;28;20166;-66
2022/03/31 03:49:54;;;;;;;20.67;13.83;;;4.00;99.90;;;;;;5115239;28;20170;-66
2022/03/31 03:52:19;;;;;;;21.63;13.37;;;3.90;99.90;;;;;;5115872;28;20248;-65
2022/03/31 03:54:45;;;;;;;20.47;13.27;;;3.90;99.90;;;;;;5095558;28;20332;-66
2022/03/31 03:57:11;;;;;;;21.03;12.47;;;3.90;99.90;;;;;;5095939;28;20174;-66
2022/03/31 03:59:37;;;;;;;23.17;13.67;;;3.90;99.90;;;;;;5095713;28;20182;-65
2022/03/31 04:02:03;;;;;;;19.57;13.57;;;4.00;99.90;;;;;;5095788;28;20205;-66
2022/03/31 04:04:29;;;;;;;20.23;13.23;;;3.90;99.90;;;;;;5113710;28;20170;-67
2022/03/31 04:06:56;;;;;;;22.43;12.73;;;3.90;99.90;;;;;;5114687;28;20174;-65
2022/03/31 04:09:22;;;;;;;20.77;13.07;;;3.90;99.90;;;;;;5114616;28;20617;-66
2022/03/31 04:11:48;;;;;;;22.13;12.50;;;3.80;99.90;;;;;;5114395;28;20265;-66
2022/03/31 04:14:13;;;;;;;22.60;14.13;;;3.90;99.90;;;;;;5114467;28;20198;-66
2022/03/31 04:16:39;;;;;;;23.00;13.10;;;3.90;99.90;;;;;;5096204;28;20581;-65
2022/03/31 04:19:08;;;;;;;22.87;13.33;;;3.90;99.90;;;;;;5113937;28;20155;-66
2022/03/31 04:21:34;;;;;;;18.13;12.50;;;3.90;99.90;;;;;;5096024;28;20488;-65
2022/03/31 04:24:00;;;;;;;20.30;12.50;;;3.80;99.90;;;;;;5113674;28;20620;-65
2022/03/31 04:26:26;;;;;;;22.47;13.30;;;3.90;99.90;;;;;;5113566;28;20250;-65
2022/03/31 04:28:52;;;;;;;23.47;13.30;;;3.80;99.90;;;;;;5113815;28;20204;-66
2022/03/31 04:31:17;;;;;;;23.60;13.57;;;3.80;99.90;;;;;;5117584;28;20246;-64
2022/03/31 04:33:43;;;;;;;29.53;13.83;;;3.80;99.90;;;;;;5118091;28;20209;-66
2022/03/31 04:36:09;;;;;;;24.13;14.47;;;3.80;99.90;;;;;;5117569;28;20572;-65
2022/03/31 04:38:34;;;;;;;23.60;13.87;;;3.70;99.90;;;;;;5117977;28;20502;-67
2022/03/31 04:41:00;;;;;;;22.20;14.60;;;3.80;99.90;;;;;;5118055;28;20192;-67
2022/03/31 04:43:25;;;;;;;19.07;13.17;;;3.70;99.90;;;;;;5098803;28;20178;-65
2022/03/31 04:45:51;;;;;;;21.73;13.43;;;3.70;99.90;;;;;;5116967;28;20158;-66
2022/03/31 04:48:16;;;;;;;19.53;12.97;;;3.70;99.90;;;;;;5116927;28;20246;-65
2022/03/31 04:50:42;;;;;;;23.50;14.03;;;3.60;99.90;;;;;;5099516;28;20174;-66
2022/03/31 04:53:08;;;;;;;22.87;14.50;;;3.70;99.90;;;;;;5117156;28;20194;-65
2022/03/31 04:55:34;;;;;;;22.63;14.33;;;3.80;99.90;;;;;;5117915;28;20221;-66
2022/03/31 04:58:00;;;;;;;22.47;13.43;;;3.80;99.90;;;;;;5116713;28;20170;-67
2022/03/31 05:00:25;;;;;;;23.10;14.43;;;3.80;99.90;;;;;;5116950;28;20162;-65
2022/03/31 05:02:51;;;;;;;24.27;14.60;;;3.70;99.90;;;;;;5117319;28;20571;-67
2022/03/31 05:05:17;;;;;;;22.87;14.77;;;3.70;99.90;;;;;;5117260;28;20163;-65
2022/03/31 05:07:42;;;;;;;25.53;15.97;;;3.70;99.90;;;;;;5117115;28;20504;-66
2022/03/31 05:10:09;;;;;;;26.93;15.30;;;3.60;99.90;;;;;;5116655;28;20170;-66
2022/03/31 05:12:34;;;;;;;26.13;14.97;;;3.70;99.90;;;;;;5116495;28;20585;-66
2022/03/31 05:15:00;;;;;;;25.13;14.40;;;3.60;99.90;;;;;;5117973;28;20174;-66
2022/03/31 05:17:31;;;;;;;18.97;12.83;;;3.70;99.90;;;;;;5119413;28;20482;-66
2022/03/31 05:19:57;;;;;;;20.63;13.57;;;3.60;99.90;;;;;;5117976;28;20192;-67
2022/03/31 05:22:22;;;;;;;19.33;13.60;;;3.60;99.90;;;;;;5118072;28;20177;-68
2022/03/31 05:24:48;;;;;;;21.47;14.00;;;3.60;99.90;;;;;;5118283;28;20163;-66
2022/03/31 05:27:14;;;;;;;22.10;14.37;;;3.50;99.90;;;;;;5099420;28;20223;-66
2022/03/31 05:29:39;;;;;;;21.37;13.53;;;3.40;99.90;;;;;;5119756;28;20201;-65
2022/03/31 05:32:05;;;;;;;19.57;14.00;;;3.50;99.90;;;;;;5122897;28;20238;-66
2022/03/31 05:34:32;;;;;;;21.53;13.53;;;3.50;99.90;;;;;;5121928;28;20247;-66
2022/03/31 05:36:57;;;;;;;21.60;14.23;;;3.60;99.90;;;;;;5121113;28;20186;-67
2022/03/31 05:39:23;;;;;;;22.80;14.10;;;3.70;99.90;;;;;;5103046;28;20361;-66
2022/03/31 05:41:49;;;;;;;21.73;14.20;;;3.70;99.90;;;;;;5120473;28;20220;-65
2022/03/31 05:44:14;;;;;;;22.23;13.77;;;3.70;99.90;;;;;;5118974;28;20202;-64
2022/03/31 05:46:40;;;;;;;21.97;14.27;;;3.40;99.90;;;;;;5118894;28;20299;-68
2022/03/31 05:49:06;;;;;;;24.20;13.87;;;3.40;99.90;;;;;;5121676;28;20629;-66
2022/03/31 05:51:31;;;;;;;20.17;13.50;;;3.30;99.90;;;;;;5119590;28;20609;-65
2022/03/31 05:53:58;;;;;;;24.23;13.97;;;3.40;99.90;;;;;;5099196;28;20700;-67
2022/03/31 05:56:23;;;;;;;21.07;13.93;;;3.50;99.90;;;;;;5115978;28;20162;-65
2022/03/31 05:58:50;;;;;;;23.90;13.80;;;3.50;99.90;;;;;;5116073;28;20170;-65
2022/03/31 06:01:17;;;;;;;19.63;13.30;;;3.60;99.90;;;;;;5116188;28;20159;-66
2022/03/31 06:03:42;;;;;;;18.63;12.97;;;3.70;99.90;;;;;;5116364;28;20159;-66
2022/03/31 06:06:09;;;;;;;23.80;12.50;;;3.60;99.90;;;;;;5116135;28;20528;-66
2022/03/31 06:08:34;;;;;;;20.67;13.90;;;3.50;99.90;;;;;;5115761;28;20163;-66
2022/03/31 06:11:00;;;;;;;18.20;12.97;;;3.70;99.90;;;;;;5091719;28;20174;-65
2022/03/31 06:13:26;;;;;;;21.73;13.13;;;3.60;99.90;;;;;;5095224;28;20248;-67
2022/03/31 06:15:52;;;;;;;19.60;12.93;;;3.60;99.90;;;;;;5095433;28;20243;-66
2022/03/31 06:18:18;;;;;;;20.20;11.93;;;3.80;99.90;;;;;;5095136;28;20169;-66
2022/03/31 06:20:44;;;;;;;20.87;13.87;;;3.70;99.90;;;;;;5095204;28;20575;-66
2022/03/31 06:23:10;;;;;;;23.07;14.70;;;3.70;99.90;;;;;;5094977;28;20196;-66
2022/03/31 06:25:35;;;;;;;17.03;11.97;;;3.70;99.90;;;;;;5095592;28;20250;-65
2022/03/31 06:28:01;;;;;;;18.87;13.27;;;3.50;99.90;;;;;;5094921;28;20178;-66
2022/03/31 06:30:27;;;;;;;20.73;12.63;;;3.50;99.90;;;;;;5095219;28;20560;-66
2022/03/31 06:32:53;;;;;;;20.70;12.97;;;3.60;99.90;;;;;;5094303;28;20191;-67
2022/03/31 06:35:19;;;;;;;20.40;13.13;;;3.50;99.90;;;;;;5094560;28;20205;-65
2022/03/31 06:37:45;;;;;;;29.67;19.80;;;3.60;99.90;;;;;;5094745;28;20191;-66
2022/03/31 06:40:13;;;;;;;21.23;14.73;;;3.50;99.90;;;;;;5094818;28;20173;-65
2022/03/31 06:42:40;;;;;;;22.30;14.87;;;3.50;99.90;;;;;;5096572;28;20167;-65
2022/03/31 06:45:12;;;;;;;21.80;12.90;;;3.50;99.90;;;;;;5094872;28;20167;-65
2022/03/31 06:47:42;;;;;;;33.37;20.07;;;3.40;99.90;;;;;;5094648;28;20540;-65
2022/03/31 06:50:08;;;;;;;20.83;14.13;;;3.50;99.90;;;;;;5094763;28;20217;-64
2022/03/31 06:52:34;;;;;;;21.67;14.33;;;3.50;99.90;;;;;;5094058;28;20293;-66
2022/03/31 06:55:00;;;;;;;31.90;17.07;;;3.50;99.90;;;;;;5094469;28;20695;-65
2022/03/31 06:57:26;;;;;;;22.67;14.77;;;3.50;99.90;;;;;;5094275;28;20169;-65
2022/03/31 06:59:52;;;;;;;21.30;14.20;;;3.50;99.90;;;;;;5094892;28;20160;-65
2022/03/31 07:02:17;;;;;;;21.00;13.53;;;3.40;99.90;;;;;;5095004;28;20247;-65
2022/03/31 07:04:43;;;;;;;20.00;13.17;;;3.40;99.90;;;;;;5095321;28;20168;-65
2022/03/31 07:07:09;;;;;;;19.60;13.73;;;3.40;99.90;;;;;;5094705;28;20168;-66
2022/03/31 07:09:35;;;;;;;17.63;13.20;;;3.50;99.90;;;;;;5094324;28;20277;-67
2022/03/31 07:12:00;;;;;;;21.70;13.77;;;3.50;99.90;;;;;;5094050;28;20248;-65
2022/03/31 07:14:26;;;;;;;18.67;12.77;;;3.60;99.90;;;;;;5094411;28;20198;-67
2022/03/31 07:16:52;;;;;;;21.60;13.87;;;3.50;99.90;;;;;;5094445;28;20177;-65
2022/03/31 07:19:17;;;;;;;19.57;13.13;;;3.60;99.90;;;;;;5094931;28;20163;-65
2022/03/31 07:21:43;;;;;;;20.80;14.13;;;3.70;99.90;;;;;;5094232;28;20546;-67
2022/03/31 07:24:09;;;;;;;18.13;11.83;;;3.60;99.90;;;;;;5094308;28;20170;-67
2022/03/31 07:26:35;;;;;;;18.77;13.30;;;3.60;99.90;;;;;;5093677;28;20266;-66
2022/03/31 07:29:01;;;;;;;21.47;12.83;;;3.80;99.90;;;;;;5093841;28;20666;-65
2022/03/31 07:31:28;;;;;;;17.83;12.57;;;3.70;99.90;;;;;;5076285;28;20187;-66
2022/03/31 07:33:56;;;;;;;18.50;12.73;;;3.70;99.90;;;;;;5094039;28;20262;-65
2022/03/31 07:36:22;;;;;;;20.33;13.90;;;3.70;99.90;;;;;;5094273;28;20270;-65
2022/03/31 07:38:47;;;;;;;22.83;12.97;;;3.70;99.90;;;;;;5094542;28;20611;-66
2022/03/31 07:41:15;;;;;;;18.67;13.20;;;3.60;99.90;;;;;;5076311;28;20189;-65
2022/03/31 07:43:41;;;;;;;18.37;13.00;;;3.70;99.90;;;;;;5100838;28;20167;-66
2022/03/31 07:46:07;;;;;;;19.03;12.43;;;3.70;99.90;;;;;;5101189;28;20170;-66
2022/03/31 07:48:32;;;;;;;19.90;12.90;;;3.50;99.90;;;;;;5094224;28;20509;-65
2022/03/31 07:50:59;;;;;;;18.57;13.17;;;3.50;99.90;;;;;;5093933;28;20552;-65
2022/03/31 07:53:32;;;;;;;20.70;13.40;;;3.50;99.90;;;;;;5093759;28;20205;-67
2022/03/31 07:55:59;;;;;;;19.10;13.90;;;3.70;99.90;;;;;;5075874;28;20235;-66
2022/03/31 07:58:25;;;;;;;20.03;13.73;;;3.60;99.90;;;;;;5093912;28;20163;-64
2022/03/31 08:00:52;;;;;;;20.40;13.40;;;3.60;99.90;;;;;;5095337;28;20155;-65
2022/03/31 08:03:18;;;;;;;19.33;13.60;;;3.60;99.90;;;;;;5093413;28;20208;-66
2022/03/31 08:05:45;;;;;;;21.27;13.03;;;3.60;99.90;;;;;;5097629;28;20381;-66
2022/03/31 08:08:12;;;;;;;21.70;13.53;;;3.60;99.90;;;;;;5099678;28;20495;-65
2022/03/31 08:10:38;;;;;;;21.90;13.57;;;3.60;99.90;;;;;;5097931;28;20170;-67
2022/03/31 08:13:04;;;;;;;23.90;13.77;;;3.50;99.90;;;;;;5097755;28;20187;-64
2022/03/31 08:15:29;;;;;;;19.90;13.17;;;3.50;99.90;;;;;;5097980;28;20454;-66
2022/03/31 08:17:55;;;;;;;19.03;12.30;;;3.60;99.90;;;;;;5097721;28;20168;-66
2022/03/31 08:20:21;;;;;;;20.73;13.40;;;3.60;99.90;;;;;;5097964;28;20159;-66
2022/03/31 08:22:47;;;;;;;20.47;12.70;;;3.70;99.90;;;;;;5097638;28;20713;-66
2022/03/31 08:25:14;;;;;;;18.50;13.23;;;3.50;99.90;;;;;;5098545;28;20160;-65
2022/03/31 08:27:40;;;;;;;24.57;14.00;;;3.80;99.90;;;;;;5080436;28;20175;-66
2022/03/31 08:30:10;;;;;;;20.63;13.03;;;3.90;99.90;;;;;;5099550;28;20175;-65
2022/03/31 08:32:38;;;;;;;19.37;13.40;;;3.70;99.90;;;;;;5098984;28;20163;-65
2022/03/31 08:35:06;;;;;;;27.23;14.23;;;3.60;99.90;;;;;;5097988;28;20251;-66
2022/03/31 08:37:31;;;;;;;21.77;13.70;;;3.60;99.90;;;;;;5097387;28;20182;-66
2022/03/31 08:39:57;;;;;;;22.13;14.03;;;3.60;99.90;;;;;;5097116;28;20167;-66
2022/03/31 08:42:23;;;;;;;23.90;14.37;;;3.50;99.90;;;;;;5097182;28;20482;-66
2022/03/31 08:44:50;;;;;;;18.40;13.87;;;3.60;99.90;;;;;;5096713;28;20491;-64
2022/03/31 08:47:18;;;;;;;19.30;13.73;;;3.80;99.90;;;;;;5097150;28;20624;-67
2022/03/31 08:49:46;;;;;;;20.33;13.10;;;3.90;99.90;;;;;;5086280;28;20184;-67
2022/03/31 08:52:12;;;;;;;20.87;13.67;;;4.00;99.90;;;;;;5092686;28;20179;-65
2022/03/31 08:54:39;;;;;;;18.43;12.43;;;3.80;99.90;;;;;;5076501;28;20235;-66
2022/03/31 08:57:05;;;;;;;21.67;13.23;;;3.90;99.90;;;;;;5076586;28;20493;-65
2022/03/31 08:59:31;;;;;;;18.80;13.03;;;3.90;99.90;;;;;;5076902;28;20218;-66
2022/03/31 09:01:58;;;;;;;20.83;13.00;;;3.90;99.90;;;;;;5072747;28;20241;-67
2022/03/31 09:04:24;;;;;;;22.27;12.80;;;3.90;99.90;;;;;;5076512;28;20169;-65
2022/03/31 09:07:08;;;;;;;18.80;11.83;;;4.00;99.90;;;;;;5076414;28;20227;-65
2022/03/31 09:09:51;;;;;;;16.33;12.27;;;3.90;99.90;;;;;;5076406;28;20176;-67
2022/03/31 09:12:17;;;;;;;18.37;12.53;;;4.00;99.90;;;;;;5058346;28;20197;-65
2022/03/31 09:14:43;;;;;;;20.50;13.60;;;4.00;99.90;;;;;;5076408;28;20202;-65
2022/03/31 09:17:11;;;;;;;21.47;12.97;;;4.10;99.90;;;;;;5075236;28;20271;-66
2022/03/31 09:19:37;;;;;;;20.23;12.23;;;4.30;99.90;;;;;;5076270;28;20180;-65
2022/03/31 09:22:02;;;;;;;16.97;11.13;;;4.30;99.90;;;;;;5076341;28;20171;-65
2022/03/31 09:24:30;;;;;;;21.13;12.50;;;4.30;99.90;;;;;;5076744;28;20194;-66
2022/03/31 09:26:58;;;;;;;19.37;12.43;;;4.30;99.90;;;;;;5076371;28;20409;-67
2022/03/31 09:29:26;;;;;;;17.77;11.83;;;4.10;99.90;;;;;;5075950;28;20626;-65
2022/03/31 09:31:53;;;;;;;20.07;12.87;;;3.90;99.90;;;;;;5077204;28;20678;-66
2022/03/31 09:34:19;;;;;;;17.17;12.20;;;4.00;99.90;;;;;;5077076;28;20187;-66
2022/03/31 09:36:52;;;;;;;23.07;12.40;;;4.10;99.90;;;;;;5076280;28;20217;-65
2022/03/31 09:39:20;;;;;;;20.33;12.63;;;4.20;99.90;;;;;;5076793;28;20168;-65
2022/03/31 09:41:50;;;;;;;18.20;11.63;;;4.00;99.90;;;;;;5075296;28;20619;-65
2022/03/31 09:44:18;;;;;;;15.93;11.13;;;4.30;99.90;;;;;;5075510;28;20165;-66
2022/03/31 09:46:46;;;;;;;20.77;13.07;;;4.10;99.90;;;;;;5071082;28;20607;-67
2022/03/31 09:49:14;;;;;;;17.83;12.10;;;4.20;99.90;;;;;;5075066;28;20512;-67
2022/03/31 09:51:42;;;;;;;20.40;12.93;;;4.10;99.90;;;;;;5075649;28;20165;-64
2022/03/31 09:54:08;;;;;;;19.60;12.93;;;4.10;99.90;;;;;;5082534;28;20222;-66
2022/03/31 09:56:35;;;;;;;18.70;13.43;;;4.00;99.90;;;;;;5079483;28;20181;-66
2022/03/31 09:59:02;;;;;;;17.33;12.30;;;4.20;99.90;;;;;;5074862;28;20183;-65
2022/03/31 10:01:29;;;;;;;18.37;12.97;;;4.30;99.90;;;;;;5095958;28;20215;-65
2022/03/31 10:03:56;;;;;;;21.13;13.93;;;4.40;99.90;;;;;;5096129;28;20174;-67
2022/03/31 10:06:24;;;;;;;28.47;17.57;;;4.30;99.90;;;;;;5096125;28;20178;-65
2022/03/31 10:08:50;;;;;;;21.30;14.83;;;4.40;99.90;;;;;;5095791;28;20191;-65
2022/03/31 10:11:21;;;;;;;19.43;13.03;;;4.40;99.90;;;;;;5095825;28;20162;-65
2022/03/31 10:13:53;;;;;;;20.97;12.03;;;4.30;99.90;;;;;;5098344;28;20192;-65
2022/03/31 10:16:31;;;;;;;22.37;13.40;;;4.50;99.90;;;;;;5101229;28;20171;-66
2022/03/31 10:18:56;;;;;;;22.80;14.27;;;4.60;99.90;;;;;;5099465;28;20159;-65
2022/03/31 10:21:29;;;;;;;20.13;14.33;;;4.50;99.90;;;;;;5095073;28;20169;-65
2022/03/31 10:26:40;;;;;;;17.70;11.83;;;4.50;99.90;;;;;;5095284;28;20256;-65
2022/03/31 10:29:15;;;;;;;21.43;13.37;;;4.30;99.90;;;;;;5095556;28;20169;-65
2022/03/31 10:31:46;;;;;;;23.40;13.97;;;4.30;99.90;;;;;;5095113;28;20232;-64
2022/03/31 10:34:14;;;;;;;24.77;13.83;;;4.20;99.90;;;;;;5094565;28;20536;-64
2022/03/31 10:36:47;;;;;;;21.53;13.23;;;4.30;99.90;;;;;;5095029;28;20528;-64
2022/03/31 10:39:21;;;;;;;16.73;12.50;;;4.30;99.90;;;;;;5095520;28;20260;-65
2022/03/31 10:42:00;;;;;;;17.83;12.10;;;4.30;99.90;;;;;;5095788;28;20168;-65
2022/03/31 10:44:26;;;;;;;25.50;16.67;;;4.30;99.90;;;;;;5099445;28;20191;-64
2022/03/31 10:47:07;;;;;;;19.43;13.10;;;4.30;99.90;;;;;;5098513;28;20585;-65
2022/03/31 10:49:34;;;;;;;19.37;12.60;;;4.30;99.90;;;;;;5098631;28;20170;-65
2022/03/31 10:52:17;;;;;;;18.43;11.80;;;4.20;99.90;;;;;;5097061;28;20159;-67
2022/03/31 10:54:43;;;;;;;23.93;13.53;;;4.10;99.90;;;;;;5094696;28;20225;-65
2022/03/31 10:57:15;;;;;;;22.37;13.07;;;4.40;99.90;;;;;;5094830;28;20547;-65
2022/03/31 10:59:44;;;;;;;17.03;12.67;;;4.20;99.90;;;;;;5098209;28;20155;-65
2022/03/31 11:02:12;;;;;;;18.30;11.87;;;4.20;99.90;;;;;;5094947;28;20192;-65
2022/03/31 11:04:48;;;;;;;17.63;12.10;;;4.20;99.90;;;;;;5094541;28;20599;-65
2022/03/31 11:07:24;;;;;;;21.30;13.43;;;4.20;99.90;;;;;;5076212;28;20210;-66
2022/03/31 11:10:07;;;;;;;18.43;12.23;;;4.20;99.90;;;;;;5094689;28;20155;-66
2022/03/31 11:12:35;;;;;;;18.33;12.57;;;4.20;99.90;;;;;;5094719;28;20167;-64
2022/03/31 11:15:11;;;;;;;21.57;13.77;;;4.40;99.90;;;;;;5093977;28;20170;-64
2022/03/31 11:17:39;;;;;;;23.63;13.90;;;4.30;99.90;;;;;;5093887;28;20181;-65
2022/03/31 11:20:14;;;;;;;18.87;13.13;;;4.40;99.90;;;;;;5094439;28;20160;-69
2022/03/31 11:22:47;;;;;;;18.83;11.63;;;4.30;99.90;;;;;;5094093;28;20546;-65
2022/03/31 11:25:13;;;;;;;21.93;12.50;;;4.40;99.90;;;;;;5094135;28;20663;-65
2022/03/31 11:27:41;;;;;;;17.70;11.73;;;4.40;99.90;;;;;;5094070;28;20178;-65
2022/03/31 11:30:09;;;;;;;23.13;14.97;;;4.30;99.90;;;;;;5094233;28;20644;-67
2022/03/31 11:32:36;;;;;;;20.13;12.93;;;4.30;99.90;;;;;;5094153;28;20559;-66
2022/03/31 11:35:13;;;;;;;19.37;13.37;;;4.10;99.90;;;;;;5093996;28;20181;-64
2022/03/31 11:37:52;;;;;;;19.93;12.40;;;4.10;99.90;;;;;;5094416;28;20183;-65
2022/03/31 11:40:23;;;;;;;20.67;13.10;;;4.20;99.90;;;;;;5093239;28;20607;-65
2022/03/31 11:42:50;;;;;;;25.87;13.60;;;4.00;99.90;;;;;;5093886;28;20163;-65
2022/03/31 11:45:49;;;;;;;17.73;12.60;;;4.20;99.90;;;;;;5093956;28;20261;-65
2022/03/31 11:48:23;;;;;;;18.10;12.43;;;4.20;99.90;;;;;;5093713;28;20187;-66
2022/03/31 11:50:58;;;;;;;23.47;13.00;;;4.10;99.90;;;;;;5093355;28;20158;-65
2022/03/31 11:53:29;;;;;;;18.70;12.90;;;4.00;99.90;;;;;;5093394;28;20213;-65
2022/03/31 11:56:16;;;;;;;20.97;13.37;;;4.00;99.90;;;;;;5094247;28;20264;-66
2022/03/31 11:58:46;;;;;;;20.10;12.90;;;4.20;99.90;;;;;;5053168;28;20156;-66
2022/03/31 12:01:14;;;;;;;21.57;13.63;;;4.20;99.90;;;;;;5053523;28;20597;-67
2022/03/31 12:03:39;;;;;;;21.17;13.07;;;4.20;99.90;;;;;;5069742;28;20198;-66
2022/03/31 12:06:07;;;;;;;22.47;13.33;;;4.40;99.90;;;;;;5075407;28;20175;-66
2022/03/31 12:08:34;;;;;;;22.97;14.27;;;4.20;99.90;;;;;;5055262;28;20183;-66
2022/03/31 12:11:00;;;;;;;20.97;14.17;;;4.20;99.90;;;;;;5073549;28;20205;-66
2022/03/31 12:13:28;;;;;;;21.27;13.97;;;4.30;99.90;;;;;;5055124;28;20208;-66
2022/03/31 12:16:10;;;;;;;23.60;15.90;;;4.10;99.90;;;;;;5072892;28;20599;-66
2022/03/31 12:18:37;;;;;;;19.67;13.17;;;4.10;99.90;;;;;;5073326;28;20167;-65
2022/03/31 12:21:07;;;;;;;23.43;14.37;;;4.20;99.90;;;;;;5055079;28;20632;-65
2022/03/31 12:23:43;;;;;;;29.40;17.23;;;4.20;99.90;;;;;;5073355;28;20250;-65
2022/03/31 12:26:23;;;;;;;24.47;14.43;;;4.20;99.90;;;;;;5074495;28;20190;-65
2022/03/31 12:28:50;;;;;;;23.63;14.63;;;4.20;99.90;;;;;;5072903;28;20160;-64
2022/03/31 12:31:29;;;;;;;32.60;16.77;;;4.10;99.90;;;;;;5073805;28;20171;-64
2022/03/31 12:33:56;;;;;;;24.07;13.90;;;3.90;99.90;;;;;;5072850;28;20191;-67
2022/03/31 12:36:27;;;;;;;24.13;14.80;;;3.90;99.90;;;;;;5073276;28;20223;-64
2022/03/31 12:38:55;;;;;;;20.73;13.63;;;4.00;99.90;;;;;;5073489;28;20243;-64
2022/03/31 12:41:22;;;;;;;21.07;13.67;;;4.00;99.90;;;;;;5055582;28;20455;-65
2022/03/31 12:44:00;;;;;;;19.80;13.73;;;4.00;99.90;;;;;;5073587;28;20165;-65
2022/03/31 12:46:28;;;;;;;21.67;14.57;;;4.10;99.90;;;;;;5056665;28;20615;-64